Time;durP1;ratioP1;P1;durP2;ratioP2;P2;SDS_P1;SDS_P2;PMS_P1;PMS_P2;Temp;Humidity;BMP_temperature;BMP_pressure;BME280_temperature;BME280_humidity;BME280_pressure;Samples;Min_cycle;Max_cycle;Signal;HPM_P1;HPM_P2
2023/08/26 00:02:20;;;;;;;12.77;11.77;;;;;;;27.10;47.44;95082.38;6103886;28;110418;-71
2023/08/26 00:05:24;;;;;;;12.57;11.57;;;;;;;26.98;47.73;95079.69;6113289;28;110853;-71
2023/08/26 00:08:27;;;;;;;12.75;11.75;;;;;;;26.94;48.19;95086.88;6113720;28;109916;-72
2023/08/26 00:11:31;;;;;;;13.10;12.00;;;;;;;27.05;47.97;95085.28;6112615;28;109802;-72
2023/08/26 00:14:34;;;;;;;13.07;11.98;;;;;;;27.07;47.34;95089.22;6102440;28;110292;-71
2023/08/26 00:17:38;;;;;;;12.38;11.38;;;;;;;27.11;47.27;95087.44;6110306;28;111146;-72
2023/08/26 00:20:41;;;;;;;15.60;14.40;;;;;;;27.16;47.71;95083.72;6111314;28;109999;-72
2023/08/26 00:23:44;;;;;;;18.10;16.60;;;;;;;27.10;47.77;95079.69;6099414;28;109925;-72
2023/08/26 00:26:49;;;;;;;17.80;16.40;;;;;;;27.00;48.33;95077.47;6103257;28;110046;-72
2023/08/26 00:29:52;;;;;;;15.88;14.68;;;;;;;26.87;48.60;95084.72;6112020;28;109959;-72
2023/08/26 00:32:55;;;;;;;14.60;13.40;;;;;;;26.67;49.20;95081.03;6113869;28;111560;-72
2023/08/26 00:35:58;;;;;;;15.07;13.88;;;;;;;26.78;48.84;95082.16;6103778;28;109766;-71
2023/08/26 00:39:02;;;;;;;15.65;14.25;;;;;;;26.75;49.59;95080.16;6112742;28;109637;-71
2023/08/26 00:42:06;;;;;;;14.48;13.38;;;;;;;26.77;49.45;95071.75;6113422;28;109819;-71
2023/08/26 00:45:10;;;;;;;14.90;13.70;;;;;;;26.69;49.38;95070.72;6112002;28;109787;-70
2023/08/26 00:48:13;;;;;;;14.50;13.30;;;;;;;26.83;48.85;95076.56;6102527;28;110267;-72
2023/08/26 00:51:17;;;;;;;15.23;13.88;;;;;;;27.00;48.31;95072.88;6099001;28;109737;-72
2023/08/26 00:54:20;;;;;;;17.90;16.40;;;;;;;27.05;47.88;95071.84;6112001;28;110115;-72
2023/08/26 00:57:25;;;;;;;17.90;16.40;;;;;;;27.13;48.57;95076.34;6108645;28;110102;-71
2023/08/26 01:00:29;;;;;;;18.60;17.10;;;;;;;27.15;47.66;95066.03;6100472;28;109828;-71
2023/08/26 01:03:32;;;;;;;18.55;17.15;;;;;;;27.18;47.75;95070.72;6113367;28;109906;-72
2023/08/26 01:06:35;;;;;;;20.25;18.55;;;;;;;27.19;48.17;95072.28;6104533;28;109721;-71
2023/08/26 01:09:38;;;;;;;18.92;17.40;;;;;;;27.17;47.93;95071.84;6107912;28;109940;-70
2023/08/26 01:12:57;;;;;;;18.50;16.80;;;;;;;27.20;47.98;95073.84;6091938;28;109850;-71
2023/08/26 01:16:02;;;;;;;16.30;14.90;;;;;;;27.22;48.25;95066.25;6108695;28;110137;-73
2023/08/26 01:19:10;;;;;;;15.45;14.25;;;;;;;27.22;47.66;95065.47;6112337;28;110001;-72
2023/08/26 01:22:16;;;;;;;17.83;16.43;;;;;;;27.07;48.67;95061.56;6101263;28;109827;-71
2023/08/26 01:25:21;;;;;;;15.40;14.10;;;;;;;27.04;48.33;95064.91;6111881;28;110006;-72
2023/08/26 01:28:25;;;;;;;14.77;13.57;;;;;;;27.10;47.84;95060.91;6111735;28;111283;-72
2023/08/26 01:31:32;;;;;;;15.43;14.13;;;;;;;27.17;47.86;95058.41;6098608;28;110169;-72
2023/08/26 01:34:38;;;;;;;15.17;13.87;;;;;;;27.17;48.50;95053.81;6099912;28;109870;-71
2023/08/26 01:37:43;;;;;;;15.20;13.90;;;;;;;27.05;48.42;95061.09;6111446;28;113149;-72
2023/08/26 01:40:53;;;;;;;14.25;13.15;;;;;;;26.94;49.00;95054.63;6110207;28;110262;-71
2023/08/26 01:43:58;;;;;;;14.10;13.00;;;;;;;27.00;48.80;95046.00;6104847;28;109956;-71
2023/08/26 01:47:01;;;;;;;14.90;13.63;;;;;;;27.06;48.23;95058.09;6107355;28;109976;-70
2023/08/26 01:50:05;;;;;;;15.15;13.85;;;;;;;27.09;48.15;95051.28;6111746;28;110162;-71
2023/08/26 01:53:08;;;;;;;14.50;13.10;;;;;;;27.04;48.49;95049.56;6112726;28;109120;-65
2023/08/26 01:56:13;;;;;;;14.70;13.20;;;;;;;27.06;48.09;95054.63;6092660;28;109950;-66
2023/08/26 01:59:16;;;;;;;14.30;13.18;;;;;;;27.10;47.95;95060.91;6109914;28;110917;-66
2023/08/26 02:02:19;;;;;;;13.70;12.70;;;;;;;27.13;48.28;95065.59;6106161;28;110123;-66
2023/08/26 02:05:23;;;;;;;14.00;13.00;;;;;;;27.12;47.71;95056.75;6097997;28;109830;-66
2023/08/26 02:08:26;;;;;;;14.93;13.70;;;;;;;27.12;48.13;95059.44;6098537;28;111105;-66
2023/08/26 02:11:30;;;;;;;15.90;14.60;;;;;;;27.15;48.30;95050.69;6102953;28;110173;-65
2023/08/26 02:14:33;;;;;;;15.82;14.43;;;;;;;27.16;48.09;95052.25;6103265;28;109847;-66
2023/08/26 02:17:36;;;;;;;15.50;14.20;;;;;;;27.14;48.42;95051.03;6101436;28;109986;-66
2023/08/26 02:20:42;;;;;;;17.13;15.82;;;;;;;27.13;47.82;95057.53;6104708;28;109885;-66
2023/08/26 02:23:45;;;;;;;19.95;18.45;;;;;;;27.12;48.32;95047.91;6105241;28;110323;-65
2023/08/26 02:26:51;;;;;;;17.88;16.33;;;;;;;27.13;47.87;95047.56;6104495;28;110164;-66
2023/08/26 02:29:54;;;;;;;17.00;15.60;;;;;;;27.12;47.79;95029.88;6099764;28;109954;-65
2023/08/26 02:32:57;;;;;;;17.80;16.30;;;;;;;27.12;48.67;95042.53;6102878;28;110053;-65
2023/08/26 02:36:00;;;;;;;17.70;16.20;;;;;;;27.02;48.39;95034.91;6106373;28;109808;-65
2023/08/26 02:39:03;;;;;;;15.80;14.50;;;;;;;27.05;48.42;95039.63;6106082;28;110267;-65
2023/08/26 02:42:08;;;;;;;15.60;14.30;;;;;;;27.07;47.97;95034.72;6097829;28;109403;-63
2023/08/26 02:45:12;;;;;;;14.80;13.70;;;;;;;27.05;48.73;95042.31;6110782;28;108566;-65
2023/08/26 02:48:15;;;;;;;15.90;14.60;;;;;;;27.07;48.41;95040.88;6110170;28;109932;-65
2023/08/26 02:51:19;;;;;;;15.33;14.03;;;;;;;27.07;48.49;95048.16;6090679;28;109825;-65
2023/08/26 02:54:22;;;;;;;16.10;14.80;;;;;;;27.08;48.07;95041.66;6093773;28;110031;-71
2023/08/26 02:57:27;;;;;;;15.60;14.40;;;;;;;26.81;49.52;95035.84;6106156;28;110332;-71
2023/08/26 03:00:30;;;;;;;15.38;14.18;;;;;;;26.56;50.01;95034.25;6109442;28;109837;-72
2023/08/26 03:03:34;;;;;;;15.20;13.90;;;;;;;26.45;50.20;95030.44;6104825;28;110138;-72
2023/08/26 03:06:37;;;;;;;18.30;16.70;;;;;;;26.45;50.03;95027.75;6106084;28;109805;-72
2023/08/26 03:09:40;;;;;;;14.87;13.67;;;;;;;26.47;49.59;95045.06;6110776;28;110283;-72
2023/08/26 03:12:45;;;;;;;15.10;13.80;;;;;;;26.31;50.30;95035.31;6111228;28;110509;-71
2023/08/26 03:15:48;;;;;;;15.20;13.90;;;;;;;26.32;50.00;95043.03;6101432;28;111301;-72
2023/08/26 03:18:51;;;;;;;14.45;13.35;;;;;;;26.47;49.89;95060.38;6113443;28;109834;-72
2023/08/26 03:21:55;;;;;;;15.43;14.05;;;;;;;26.66;49.10;95054.50;6114179;28;110118;-72
2023/08/26 03:24:58;;;;;;;16.25;14.95;;;;;;;26.82;48.41;95052.72;6114965;28;110019;-71
2023/08/26 03:28:04;;;;;;;17.77;16.37;;;;;;;26.91;48.20;95058.78;6104124;28;112812;-73
2023/08/26 03:31:07;;;;;;;18.13;16.73;;;;;;;26.94;48.21;95063.47;6113735;28;110263;-72
2023/08/26 03:34:11;;;;;;;16.95;15.55;;;;;;;26.96;48.56;95063.13;6113692;28;109915;-71
2023/08/26 03:37:14;;;;;;;16.27;15.05;;;;;;;26.99;48.19;95067.84;6103813;28;109917;-72
2023/08/26 03:40:22;;;;;;;16.83;15.43;;;;;;;26.96;48.03;95065.81;6108263;28;109896;-71
2023/08/26 03:43:27;;;;;;;16.08;14.80;;;;;;;26.96;48.60;95071.97;6111248;28;109742;-72
2023/08/26 03:46:30;;;;;;;16.83;15.20;;;;;;;26.99;48.27;95073.22;6112112;28;109767;-72
2023/08/26 03:49:33;;;;;;;17.10;15.52;;;;;;;26.97;48.65;95084.28;6086097;28;110099;-71
2023/08/26 03:52:36;;;;;;;16.17;14.67;;;;;;;27.01;48.66;95082.50;6105119;28;109984;-71
2023/08/26 03:55:39;;;;;;;15.93;14.57;;;;;;;27.02;48.80;95080.59;6109949;28;110144;-70
2023/08/26 03:58:44;;;;;;;19.23;17.73;;;;;;;26.97;48.55;95078.91;6113880;28;109917;-71
2023/08/26 04:01:47;;;;;;;21.13;19.23;;;;;;;26.92;49.05;95087.22;6087834;28;109813;-71
2023/08/26 04:04:50;;;;;;;21.10;19.30;;;;;;;26.76;49.36;95084.41;6111226;28;109978;-66
2023/08/26 04:07:53;;;;;;;17.90;16.10;;;;;;;26.49;49.68;95087.69;6109436;28;109861;-66
2023/08/26 04:10:57;;;;;;;16.95;15.45;;;;;;;26.24;50.46;95087.63;6112228;28;110118;-66
2023/08/26 04:14:02;;;;;;;16.27;14.57;;;;;;;26.13;50.59;95089.16;6102268;28;109621;-65
2023/08/26 04:17:05;;;;;;;18.00;16.42;;;;;;;25.73;51.61;95090.75;6107600;28;109818;-67
2023/08/26 04:20:11;;;;;;;18.50;16.80;;;;;;;24.95;53.75;95094.69;6112058;28;110869;-67
2023/08/26 04:23:14;;;;;;;17.73;16.13;;;;;;;25.00;53.84;95097.16;6103936;28;110311;-68
2023/08/26 04:26:17;;;;;;;17.20;15.63;;;;;;;25.13;53.56;95097.25;6104480;28;110707;-65
2023/08/26 04:29:22;;;;;;;17.30;15.60;;;;;;;25.19;53.42;95099.41;6111035;28;108847;-67
2023/08/26 04:32:25;;;;;;;17.50;15.80;;;;;;;25.33;53.06;95093.81;6113249;28;109801;-66
2023/08/26 04:35:29;;;;;;;18.07;16.47;;;;;;;25.56;52.31;95105.84;6103672;28;110120;-67
2023/08/26 04:38:32;;;;;;;16.53;15.13;;;;;;;25.88;51.11;95096.31;6114823;28;109932;-66
2023/08/26 04:41:35;;;;;;;14.30;13.20;;;;;;;26.11;50.88;95093.28;6115251;28;109919;-66
2023/08/26 04:44:39;;;;;;;15.00;13.70;;;;;;;26.05;50.82;95094.63;6115154;28;110110;-66
2023/08/26 04:47:42;;;;;;;15.50;14.07;;;;;;;25.86;50.75;95098.50;6102216;28;109911;-66
2023/08/26 04:50:46;;;;;;;15.27;13.97;;;;;;;25.99;50.86;95094.75;6112065;28;109740;-67
2023/08/26 04:53:49;;;;;;;14.33;13.13;;;;;;;26.11;50.50;95096.75;6113936;28;109873;-66
2023/08/26 04:56:52;;;;;;;14.67;13.33;;;;;;;26.33;49.87;95100.16;6104446;28;109867;-67
2023/08/26 04:59:56;;;;;;;13.27;12.13;;;;;;;26.44;49.20;95107.47;6106946;28;111336;-66
2023/08/26 05:02:59;;;;;;;14.10;12.80;;;;;;;26.49;49.25;95101.09;6107340;28;110058;-65
2023/08/26 05:06:03;;;;;;;14.50;13.30;;;;;;;26.54;49.11;95098.97;6113747;28;110773;-65
2023/08/26 05:09:06;;;;;;;15.80;13.90;;;;;;;26.62;49.49;95096.53;6102727;28;111155;-66
2023/08/26 05:12:09;;;;;;;15.67;14.17;;;;;;;26.70;49.73;95101.03;6112943;28;109839;-66
2023/08/26 05:15:17;;;;;;;19.13;16.83;;;;;;;26.76;50.36;95091.66;6114179;28;109733;-68
2023/08/26 05:18:21;;;;;;;25.87;20.20;;;;;;;26.78;49.93;95094.81;6114156;28;109373;-69
2023/08/26 05:21:24;;;;;;;18.57;16.77;;;;;;;26.93;49.65;95093.38;6102501;28;109838;-67
2023/08/26 05:24:27;;;;;;;17.63;15.90;;;;;;;26.82;50.57;95093.78;6113431;28;109906;-67
2023/08/26 05:27:32;;;;;;;16.50;14.90;;;;;;;26.96;49.78;95103.44;6112989;28;111229;-69
2023/08/26 05:30:37;;;;;;;16.23;14.63;;;;;;;27.02;49.67;95099.38;6105267;28;109832;-68
2023/08/26 05:33:40;;;;;;;21.40;15.00;;;;;;;27.15;50.14;95095.59;6090961;28;110834;-69
2023/08/26 05:36:43;;;;;;;16.70;14.97;;;;;;;27.19;49.67;95099.16;6112474;28;109549;-68
2023/08/26 05:39:46;;;;;;;16.63;14.53;;;;;;;27.20;49.55;95103.41;6109200;28;109880;-67
2023/08/26 05:42:49;;;;;;;17.03;14.33;;;;;;;27.21;49.01;95107.66;6097143;28;110698;-67
2023/08/26 05:45:56;;;;;;;21.47;15.23;;;;;;;27.27;49.30;95106.38;6109139;28;111513;-69
2023/08/26 05:48:59;;;;;;;17.53;15.00;;;;;;;27.29;49.39;95103.34;6114051;28;109509;-70
2023/08/26 05:52:02;;;;;;;16.87;15.27;;;;;;;27.35;48.31;95115.41;6114382;28;112660;-69
2023/08/26 05:55:06;;;;;;;16.27;14.70;;;;;;;27.41;48.52;95106.03;6104322;28;109739;-69
2023/08/26 05:58:09;;;;;;;15.60;14.17;;;;;;;27.45;48.74;95102.31;6114401;28;110079;-69
2023/08/26 06:01:14;;;;;;;15.97;14.47;;;;;;;27.50;48.12;95103.19;6113802;28;109966;-70
2023/08/26 06:04:17;;;;;;;15.87;14.20;;;;;;;27.54;47.79;95094.09;6114057;28;108833;-69
2023/08/26 06:07:20;;;;;;;14.67;13.47;;;;;;;27.59;47.63;95101.16;6102665;28;111480;-69
2023/08/26 06:10:24;;;;;;;15.83;14.47;;;;;;;27.62;47.86;95103.16;6113617;28;110344;-70
2023/08/26 06:13:27;;;;;;;15.13;13.73;;;;;;;27.65;47.85;95099.78;6113864;28;109847;-70
2023/08/26 06:16:31;;;;;;;15.37;14.10;;;;;;;27.68;47.86;95099.13;6108920;28;111007;-69
2023/08/26 06:19:35;;;;;;;15.23;13.80;;;;;;;27.70;47.32;95099.56;6108302;28;109822;-69
2023/08/26 06:22:38;;;;;;;14.00;12.90;;;;;;;27.75;47.32;95097.44;6113006;28;109967;-65
2023/08/26 06:25:51;;;;;;;14.53;13.07;;;;;;;27.81;46.95;95100.66;6113191;28;109802;-67
2023/08/26 06:28:54;;;;;;;14.33;13.17;;;;;;;27.85;46.79;95103.44;6095344;28;109759;-65
2023/08/26 06:31:58;;;;;;;13.57;12.37;;;;;;;27.89;47.40;95107.03;6112851;28;109778;-65
2023/08/26 06:35:04;;;;;;;16.00;13.67;;;;;;;27.92;46.86;95109.84;6113025;28;109786;-66
2023/08/26 06:38:07;;;;;;;14.33;13.13;;;;;;;27.95;46.84;95109.16;6112048;28;109940;-64
2023/08/26 06:41:11;;;;;;;14.83;13.53;;;;;;;27.98;46.59;95111.16;6102819;28;108951;-66
2023/08/26 06:44:14;;;;;;;15.07;13.77;;;;;;;28.00;46.67;95111.59;6097558;28;109799;-65
2023/08/26 06:47:18;;;;;;;12.73;11.77;;;;;;;28.05;46.78;95107.88;6112723;28;109848;-65
2023/08/26 06:50:22;;;;;;;13.90;12.77;;;;;;;28.07;46.71;95107.56;6107945;28;110120;-66
2023/08/26 06:53:26;;;;;;;13.10;12.00;;;;;;;28.10;46.47;95120.31;6110813;28;110412;-65
2023/08/26 06:56:29;;;;;;;12.87;11.80;;;;;;;28.13;46.48;95125.78;6117209;28;109895;-64
2023/08/26 06:59:32;;;;;;;12.73;11.57;;;;;;;28.15;46.37;95122.75;6117249;28;109921;-65
2023/08/26 07:02:36;;;;;;;13.03;11.90;;;;;;;28.17;46.93;95115.13;6106588;28;109841;-65
2023/08/26 07:05:43;;;;;;;13.52;12.32;;;;;;;28.16;46.73;95121.63;6115404;28;110024;-65
2023/08/26 07:08:46;;;;;;;12.57;11.53;;;;;;;28.15;46.37;95123.53;6098992;28;109736;-65
2023/08/26 07:11:49;;;;;;;13.17;12.07;;;;;;;28.16;46.82;95119.72;6115080;28;110253;-63
2023/08/26 07:14:52;;;;;;;13.00;11.90;;;;;;;28.17;46.14;95115.91;6105345;28;110172;-67
2023/08/26 07:17:57;;;;;;;13.80;12.60;;;;;;;28.20;47.73;95114.44;6114534;28;110041;-64
2023/08/26 07:21:01;;;;;;;13.60;12.30;;;;;;;28.21;46.87;95111.38;6104889;28;109909;-65
2023/08/26 07:24:05;;;;;;;14.60;13.23;;;;;;;28.25;46.48;95111.50;6108883;28;110003;-66
2023/08/26 07:27:08;;;;;;;13.35;12.25;;;;;;;28.30;45.81;95105.88;6096602;28;109961;-64
2023/08/26 07:30:11;;;;;;;13.27;12.18;;;;;;;28.31;46.46;95110.13;6114966;28;109838;-64
2023/08/26 07:33:16;;;;;;;12.97;11.97;;;;;;;28.35;45.83;95108.31;6115181;28;110200;-71
2023/08/26 07:36:19;;;;;;;14.13;13.02;;;;;;;28.36;46.30;95110.66;6107559;28;109852;-68
2023/08/26 07:39:24;;;;;;;13.60;12.30;;;;;;;28.40;46.03;95113.47;6113052;28;111008;-66
2023/08/26 07:42:27;;;;;;;13.02;12.00;;;;;;;28.36;45.57;95107.94;6099586;28;109929;-71
2023/08/26 07:45:30;;;;;;;13.80;12.70;;;;;;;28.40;46.13;95116.16;6116136;28;109907;-71
2023/08/26 07:48:35;;;;;;;12.77;11.77;;;;;;;28.42;45.96;95105.81;6104262;28;109932;-69
2023/08/26 07:51:40;;;;;;;13.63;12.43;;;;;;;28.42;45.66;95110.41;6115632;28;110183;-69
2023/08/26 07:54:43;;;;;;;13.20;12.10;;;;;;;28.41;45.40;95104.25;6114612;28;110184;-70
2023/08/26 07:57:46;;;;;;;12.23;11.33;;;;;;;28.41;45.53;95101.56;6115195;28;109701;-70
2023/08/26 08:00:49;;;;;;;13.30;12.10;;;;;;;28.41;45.17;95101.56;6103710;28;110071;-69
2023/08/26 08:03:54;;;;;;;13.02;11.95;;;;;;;28.42;45.69;95089.66;6115052;28;109855;-69
2023/08/26 08:06:57;;;;;;;11.85;10.95;;;;;;;28.45;45.72;95093.56;6113403;28;110873;-69
2023/08/26 08:10:00;;;;;;;11.60;10.70;;;;;;;28.48;45.50;95082.13;6108024;28;110026;-70
2023/08/26 08:13:04;;;;;;;12.73;11.73;;;;;;;28.48;45.33;95080.22;6107362;28;110033;-70
2023/08/26 08:16:08;;;;;;;12.40;11.30;;;;;;;28.49;45.15;95084.47;6113715;28;109796;-70
2023/08/26 08:19:13;;;;;;;12.98;11.77;;;;;;;28.50;45.80;95077.97;6113595;28;113531;-70
2023/08/26 08:22:16;;;;;;;13.30;12.20;;;;;;;28.51;46.04;95079.53;6086936;28;109897;-69
2023/08/26 08:25:22;;;;;;;12.20;11.30;;;;;;;28.52;45.57;95066.84;6112187;28;109513;-70
2023/08/26 08:28:25;;;;;;;11.70;10.80;;;;;;;28.50;45.57;95067.19;6106450;28;109907;-70
2023/08/26 08:31:28;;;;;;;12.50;11.50;;;;;;;28.51;45.48;95063.38;6113293;28;110226;-70
2023/08/26 08:34:33;;;;;;;12.20;11.20;;;;;;;28.51;45.28;95066.06;6104861;28;110101;-70
2023/08/26 08:37:36;;;;;;;11.82;10.93;;;;;;;28.53;45.33;95063.03;6113167;28;110665;-70
2023/08/26 08:40:40;;;;;;;11.27;10.43;;;;;;;28.54;45.14;95057.28;6111949;28;109960;-70
2023/08/26 08:43:45;;;;;;;11.43;10.43;;;;;;;28.54;44.98;95059.19;6112371;28;109977;-69
2023/08/26 08:46:48;;;;;;;11.53;10.53;;;;;;;28.54;44.70;95065.38;6096653;28;109990;-70
2023/08/26 08:49:54;;;;;;;11.20;10.20;;;;;;;28.55;45.45;95061.53;6112468;28;110311;-69
2023/08/26 08:52:59;;;;;;;10.80;10.00;;;;;;;28.57;45.04;95063.91;6112302;28;110202;-69
2023/08/26 08:56:02;;;;;;;11.10;10.20;;;;;;;28.57;45.12;95059.31;6103038;28;112716;-70
2023/08/26 08:59:06;;;;;;;12.27;11.37;;;;;;;28.62;44.76;95058.25;6112431;28;109829;-70
2023/08/26 09:02:12;;;;;;;13.20;12.00;;;;;;;28.64;45.16;95059.47;6112955;28;109934;-70
2023/08/26 09:05:17;;;;;;;12.90;11.80;;;;;;;28.65;44.74;95054.88;6112470;28;110095;-70
2023/08/26 09:08:22;;;;;;;12.98;11.98;;;;;;;28.67;44.66;95051.81;6102379;28;109931;-70
2023/08/26 09:11:27;;;;;;;13.85;12.65;;;;;;;28.70;44.94;95046.50;6104985;28;109763;-70
2023/08/26 09:14:30;;;;;;;14.40;13.20;;;;;;;28.70;44.95;95046.50;6103998;28;109919;-69
2023/08/26 09:17:33;;;;;;;15.07;13.88;;;;;;;28.70;44.86;95046.50;6112463;28;109749;-70
2023/08/26 09:20:40;;;;;;;15.13;13.98;;;;;;;28.69;45.40;95033.41;6101508;28;110101;-66
2023/08/26 09:23:44;;;;;;;15.07;13.77;;;;;;;28.71;45.37;95036.53;6097609;28;111425;-70
2023/08/26 09:26:59;;;;;;;14.65;13.45;;;;;;;28.71;45.20;95036.53;6111790;28;109620;-69
2023/08/26 09:30:03;;;;;;;13.60;12.60;;;;;;;28.71;44.92;95037.31;6103264;28;110893;-69
2023/08/26 09:33:13;;;;;;;13.70;12.70;;;;;;;28.72;45.00;95036.16;6111789;28;109990;-70
2023/08/26 09:36:18;;;;;;;13.30;12.20;;;;;;;28.71;44.87;95029.22;6112533;28;109551;-70
2023/08/26 09:39:25;;;;;;;13.93;12.82;;;;;;;28.71;45.02;95031.91;6112179;28;112725;-69
2023/08/26 09:42:30;;;;;;;13.27;12.17;;;;;;;28.74;44.71;95025.06;6100950;28;110985;-69
2023/08/26 09:45:38;;;;;;;13.60;12.40;;;;;;;28.75;44.47;95015.88;6111924;28;109824;-69
2023/08/26 09:48:41;;;;;;;12.95;11.95;;;;;;;28.75;44.49;95016.66;6111214;28;109751;-70
2023/08/26 09:51:50;;;;;;;12.45;11.55;;;;;;;28.76;44.81;95012.03;6111165;28;109715;-69
2023/08/26 09:54:54;;;;;;;12.70;11.77;;;;;;;28.75;44.80;95013.16;6100292;28;109773;-66
2023/08/26 09:57:57;;;;;;;12.60;11.60;;;;;;;28.75;44.43;95010.47;6111290;28;109767;-65
2023/08/26 10:01:02;;;;;;;12.15;11.25;;;;;;;28.75;44.99;95005.88;6110999;28;109996;-66
2023/08/26 10:04:08;;;;;;;12.32;11.23;;;;;;;28.75;44.50;95005.88;6103638;28;109700;-67
2023/08/26 10:07:13;;;;;;;11.80;11.00;;;;;;;28.76;44.29;95003.97;6110691;28;109731;-66
2023/08/26 10:10:28;;;;;;;12.00;11.10;;;;;;;28.74;44.25;95008.91;6111345;28;110436;-65
2023/08/26 10:13:35;;;;;;;11.73;10.82;;;;;;;28.71;44.70;94985.34;6110681;28;109741;-65
2023/08/26 10:16:40;;;;;;;11.98;10.90;;;;;;;28.70;44.77;94992.66;6100856;28;109659;-66
2023/08/26 10:19:44;;;;;;;11.68;10.77;;;;;;;28.71;44.16;94993.44;6110242;28;109807;-65
2023/08/26 10:22:48;;;;;;;11.00;10.20;;;;;;;28.72;44.05;94985.00;6110484;28;109751;-65
2023/08/26 10:25:52;;;;;;;10.88;10.07;;;;;;;28.70;43.91;94987.25;6110576;28;110000;-65
2023/08/26 10:28:56;;;;;;;11.20;10.20;;;;;;;28.68;44.21;94981.44;6100604;28;110210;-65
2023/08/26 10:32:15;;;;;;;10.32;9.63;;;;;;;28.69;43.47;94993.78;6111701;28;110912;-66
2023/08/26 10:35:19;;;;;;;10.70;9.90;;;;;;;28.69;43.59;94976.84;6111730;28;110003;-66
2023/08/26 10:38:23;;;;;;;11.40;10.40;;;;;;;28.70;43.41;94983.78;6100864;28;109908;-66
2023/08/26 10:41:27;;;;;;;10.60;9.80;;;;;;;28.71;44.08;94977.28;6111086;28;110991;-65
2023/08/26 10:44:31;;;;;;;10.77;9.87;;;;;;;28.71;43.33;94978.06;6110693;28;110790;-65
2023/08/26 10:47:35;;;;;;;10.65;9.85;;;;;;;28.69;43.91;94983.00;6110942;28;109976;-66
2023/08/26 10:50:40;;;;;;;11.07;10.13;;;;;;;28.67;43.97;94976.41;6100281;28;109864;-65
2023/08/26 10:53:45;;;;;;;11.20;10.30;;;;;;;28.69;43.63;94971.47;6110383;28;109929;-65
2023/08/26 10:56:58;;;;;;;10.57;9.77;;;;;;;28.68;43.92;94972.59;6110940;28;109798;-64
2023/08/26 11:00:09;;;;;;;10.65;9.85;;;;;;;28.65;43.82;94966.78;6110825;28;109929;-65
2023/08/26 11:03:14;;;;;;;10.70;9.90;;;;;;;28.65;43.69;94964.09;6103358;28;110202;-64
2023/08/26 11:06:21;;;;;;;10.82;10.02;;;;;;;28.65;44.04;94964.09;6111189;28;109953;-65
2023/08/26 11:09:26;;;;;;;10.48;9.77;;;;;;;28.64;43.66;94959.81;6103885;28;109689;-66
2023/08/26 11:12:30;;;;;;;11.05;10.25;;;;;;;28.64;43.87;94957.13;6100195;28;110840;-66
2023/08/26 11:15:37;;;;;;;10.73;9.93;;;;;;;28.63;43.79;94955.56;6109838;28;109992;-64
2023/08/26 11:18:40;;;;;;;11.50;10.60;;;;;;;28.62;43.38;94951.31;6110224;28;109803;-65
2023/08/26 11:21:44;;;;;;;11.27;10.48;;;;;;;28.61;43.82;94949.75;6109446;28;109724;-64
2023/08/26 11:24:49;;;;;;;10.98;10.18;;;;;;;28.61;43.61;94955.16;6099761;28;110056;-66
2023/08/26 11:27:52;;;;;;;11.50;10.60;;;;;;;28.61;43.08;94946.28;6109872;28;109857;-66
2023/08/26 11:30:56;;;;;;;10.77;9.90;;;;;;;28.62;42.95;94942.47;6110752;28;110893;-67
2023/08/26 11:33:59;;;;;;;10.52;9.73;;;;;;;28.61;43.23;94941.69;6110371;28;109957;-65
2023/08/26 11:37:02;;;;;;;10.85;10.05;;;;;;;28.60;43.20;94937.44;6102015;28;109983;-65
2023/08/26 11:40:08;;;;;;;10.23;9.43;;;;;;;28.61;43.15;94939.00;6114247;28;110069;-65
2023/08/26 11:43:13;;;;;;;11.10;10.30;;;;;;;28.60;42.65;94937.44;6115188;28;112470;-65
2023/08/26 11:46:18;;;;;;;10.80;10.00;;;;;;;28.59;43.01;94929.69;6106466;28;110718;-66
2023/08/26 11:49:22;;;;;;;10.70;9.90;;;;;;;28.58;42.73;94928.94;6113728;28;109936;-65
2023/08/26 11:52:32;;;;;;;10.80;9.90;;;;;;;28.59;43.01;94922.41;6114229;28;110020;-65
2023/08/26 11:55:38;;;;;;;11.10;10.30;;;;;;;28.60;43.21;94923.97;6114891;28;109934;-67
2023/08/26 11:58:42;;;;;;;11.80;10.80;;;;;;;28.63;43.25;94925.16;6088262;28;110793;-64
2023/08/26 12:01:45;;;;;;;11.43;10.63;;;;;;;28.67;43.49;94914.47;6098294;28;111158;-65
2023/08/26 12:04:48;;;;;;;11.60;10.70;;;;;;;28.71;42.63;94912.63;6114285;28;110086;-64
2023/08/26 12:07:54;;;;;;;11.83;10.80;;;;;;;28.71;43.10;94907.25;6113838;28;109983;-65
2023/08/26 12:10:59;;;;;;;11.30;10.40;;;;;;;28.71;42.30;94907.25;6103329;28;110136;-65
2023/08/26 12:14:14;;;;;;;11.10;10.27;;;;;;;28.67;42.42;94901.00;6113762;28;109818;-65
2023/08/26 12:17:18;;;;;;;11.25;10.38;;;;;;;28.63;42.62;94896.31;6113637;28;109831;-71
2023/08/26 12:20:23;;;;;;;11.40;10.50;;;;;;;28.62;42.83;94888.59;6101916;28;109766;-68
2023/08/26 12:23:26;;;;;;;11.20;10.30;;;;;;;28.60;42.76;94880.88;6112458;28;109945;-71
2023/08/26 12:26:30;;;;;;;11.85;10.95;;;;;;;28.60;42.80;94878.19;6112940;28;109770;-70
2023/08/26 12:29:33;;;;;;;11.50;10.70;;;;;;;28.59;43.25;94879.31;6112679;28;109970;-70
2023/08/26 12:32:36;;;;;;;12.30;11.40;;;;;;;28.59;43.14;94873.94;6102276;28;110070;-72
2023/08/26 12:35:40;;;;;;;11.77;10.90;;;;;;;28.59;42.86;94867.78;6113355;28;109898;-70
2023/08/26 12:38:43;;;;;;;12.07;11.27;;;;;;;28.59;43.00;94868.56;6112800;28;109810;-71
2023/08/26 12:41:48;;;;;;;11.98;11.07;;;;;;;28.59;42.92;94879.31;6112874;28;109882;-70
2023/08/26 12:44:52;;;;;;;12.38;11.38;;;;;;;28.60;43.16;94872.03;6101634;28;109923;-70
2023/08/26 12:47:56;;;;;;;12.25;11.35;;;;;;;28.61;43.00;94865.50;6112047;28;110120;-70
2023/08/26 12:50:59;;;;;;;11.52;10.63;;;;;;;28.61;42.89;94860.91;6110580;28;109352;-70
2023/08/26 12:54:03;;;;;;;11.50;10.70;;;;;;;28.59;42.66;94860.47;6108157;28;109569;-70
2023/08/26 12:57:08;;;;;;;13.68;12.57;;;;;;;28.57;42.87;94854.66;6107371;28;110003;-71
2023/08/26 13:00:12;;;;;;;14.67;13.57;;;;;;;28.58;43.22;94852.75;6112717;28;112966;-71
2023/08/26 13:03:15;;;;;;;15.30;14.20;;;;;;;28.58;43.44;94848.13;6112582;28;109681;-71
2023/08/26 13:06:19;;;;;;;15.45;14.35;;;;;;;28.59;43.27;94857.00;6101041;28;109791;-70
2023/08/26 13:09:22;;;;;;;15.60;14.40;;;;;;;28.57;43.21;94845.81;6105511;28;110406;-71
2023/08/26 13:12:26;;;;;;;16.20;15.00;;;;;;;28.60;43.08;94839.72;6112152;28;109967;-71
2023/08/26 13:15:31;;;;;;;15.02;13.93;;;;;;;28.59;42.71;94830.84;6112339;28;109926;-71
2023/08/26 13:18:34;;;;;;;15.20;14.10;;;;;;;28.60;43.20;94837.78;6102107;28;111197;-71
2023/08/26 13:21:38;;;;;;;16.67;15.40;;;;;;;28.62;42.80;94830.13;6111670;28;109866;-72
2023/08/26 13:24:42;;;;;;;15.75;14.55;;;;;;;28.61;42.75;94831.28;6112070;28;109918;-64
2023/08/26 13:27:48;;;;;;;14.60;13.40;;;;;;;28.62;42.56;94822.06;6111825;28;110606;-66
2023/08/26 13:30:51;;;;;;;14.20;13.10;;;;;;;28.63;42.06;94812.06;6104430;28;109860;-64
2023/08/26 13:33:54;;;;;;;13.50;12.50;;;;;;;28.65;41.47;94815.97;6111654;28;109975;-65
2023/08/26 13:36:58;;;;;;;13.40;12.40;;;;;;;28.63;41.81;94804.78;6111748;28;110391;-65
2023/08/26 13:40:01;;;;;;;13.27;12.27;;;;;;;28.63;41.82;94812.06;6102247;28;109800;-65
2023/08/26 13:43:05;;;;;;;12.50;11.60;;;;;;;28.66;40.89;94805.97;6111813;28;111450;-65
2023/08/26 13:46:08;;;;;;;13.20;12.20;;;;;;;28.67;41.62;94809.44;6112106;28;110340;-65
2023/08/26 13:49:11;;;;;;;14.50;13.40;;;;;;;28.65;41.55;94796.34;6110989;28;110734;-65
2023/08/26 13:52:14;;;;;;;16.17;14.90;;;;;;;28.70;41.30;94800.66;6101485;28;110109;-65
2023/08/26 13:55:18;;;;;;;19.17;17.60;;;;;;;28.70;41.22;94795.25;6111596;28;109634;-65
2023/08/26 13:58:22;;;;;;;17.70;16.30;;;;;;;28.70;41.39;94801.44;6110571;28;109771;-65